Data for 12/23/2015

Time Sea-Level Adjusted Pressure Absolute Pressure Temperature Relative Humidity Dew Point   
(mb) (inHg) (mb) (inHg) (C) (F) (%) (C) (F)
00:05 1000 29.53 829 24.48 -4.4 24.1 53 -12.5 9.5
00:10 1000 29.53 829 24.48 -4.2 24.4 51 -12.9 8.9
00:15 1000 29.53 829 24.48 -4.1 24.6 51 -12.9 8.8
00:20 1000 29.53 829 24.48 -4.1 24.6 50 -13 8.6
00:25 1000 29.53 829 24.48 -4.2 24.4 50 -13.1 8.5
00:30 1000 29.53 829 24.48 -4.3 24.2 51 -13.1 8.4
00:35 1000 29.53 829 24.48 -4.5 23.8 53 -12.8 9
00:40 1000 29.53 829 24.48 -4.7 23.5 54 -12.7 9.1
00:45 1000 29.53 829 24.48 -5 22.9 55 -12.8 8.9
00:50 1000 29.53 829 24.48 -5.2 22.6 53 -13.4 7.9
00:55 1000 29.53 829 24.48 -5.2 22.6 53 -13.4 7.9
01:00 1000 29.53 829 24.48 -5.2 22.6 54 -13.2 8.3
01:05 1000 29.53 829 24.48 -5.4 22.4 56 -12.8 9
01:10 1000 29.53 829 24.48 -5.7 21.8 56 -13.2 8.2
01:15 1000 29.53 829 24.48 -5.8 21.5 54 -13.6 7.5
01:20 1000 29.53 829 24.48 -5.7 21.7 52 -14 6.8
01:25 1000 29.53 829 24.48 -5.6 21.9 52 -14 6.7
01:30 1000 29.53 829 24.48 -5.6 22 52 -13.9 6.9
01:35 1000 29.53 829 24.48 -5.6 21.9 55 -13.2 8.2
01:40 1000 29.53 829 24.48 -5.7 21.7 55 -13.3 8.1
01:45 1000 29.53 829 24.48 -5.9 21.4 53 -14 6.8
01:50 1000 29.53 829 24.48 -5.9 21.3 55 -13.6 7.5
01:55 999 29.5 829 24.48 -5.9 21.4 54 -13.8 7.1
02:00 1000 29.53 829 24.48 -5.9 21.3 56 -13.3 8.1
02:05 999 29.5 829 24.48 -6.1 21.1 53 -14.2 6.5
02:10 999 29.5 829 24.48 -6 21.1 57 -13.2 8.2
02:15 999 29.5 828 24.45 -6.2 20.8 56 -13.7 7.4
02:20 999 29.5 828 24.45 -6.3 20.6 56 -13.7 7.4
02:25 999 29.5 829 24.48 -6.4 20.4 58 -13.4 7.9
02:30 999 29.5 829 24.48 -6.5 20.3 58 -13.5 7.7
02:35 999 29.5 829 24.48 -6.6 20 66 -12.1 10.3
02:40 999 29.5 829 24.48 -6.6 20.1 64 -12.4 9.8
02:45 999 29.5 829 24.48 -6.4 20.5 58 -13.3 8.1
02:50 999 29.5 829 24.48 -6.3 20.7 57 -13.4 7.9
02:55 1000 29.53 829 24.48 -6.2 20.8 56 -13.6 7.5
03:00 1000 29.53 829 24.48 -6.4 20.5 58 -13.5 7.8
03:05 1000 29.53 829 24.48 -7.5 18.4 61 -13.8 7.2
03:10 1000 29.53 829 24.48 -7.7 18.1 61 -13.9 7
03:15 1000 29.53 829 24.48 -7.7 18.1 62 -13.8 7.2
03:20 1000 29.53 829 24.48 -7.5 18.5 61 -13.9 7.1
03:25 1000 29.53 829 24.48 -7.6 18.4 60 -14 6.8
03:30 1000 29.53 829 24.48 -7.4 18.6 59 -14.2 6.4
03:35 1000 29.53 829 24.48 -7.5 18.5 59 -14.2 6.4
03:40 1000 29.53 829 24.48 -7.7 18.2 58 -14.5 5.9
03:45 1000 29.53 829 24.48 -7.9 17.8 59 -14.5 5.8
03:50 1000 29.53 829 24.48 -8.1 17.4 59 -14.8 5.3
03:55 1000 29.53 829 24.48 -9 15.9 62 -15 5
04:00 1000 29.53 829 24.48 -9.6 14.7 65 -15.1 4.8
04:05 1000 29.53 829 24.48 -9.7 14.5 67 -14.7 5.5
04:10 1000 29.53 829 24.48 -9.1 15.5 64 -14.8 5.3
04:15 1000 29.53 829 24.48 -8.7 16.4 61 -15 5
04:20 1000 29.53 829 24.48 -8.6 16.6 62 -14.6 5.7
04:25 1000 29.53 829 24.48 -8.6 16.6 60 -15.1 4.8
04:30 1000 29.53 829 24.48 -8.3 17 61 -14.6 5.7
04:35 1000 29.53 829 24.48 -9 15.8 65 -14.5 5.9
04:40 1000 29.53 829 24.48 -9.6 14.8 66 -14.8 5.4
04:45 1000 29.53 829 24.48 -9.7 14.5 67 -14.7 5.6
04:50 1000 29.53 829 24.48 -9.9 14.3 69 -14.4 6
04:55 1000 29.53 829 24.48 -10 13.9 69 -14.7 5.6
05:00 1000 29.53 829 24.48 -10.1 13.9 70 -14.6 5.7
05:05 1000 29.53 829 24.48 -10.5 13.2 71 -14.8 5.4
05:10 1000 29.53 829 24.48 -10.5 13 70 -15 5
05:15 999 29.5 829 24.48 -10.4 13.4 69 -15.1 4.9
05:20 999 29.5 829 24.48 -9.6 14.7 65 -14.9 5.1
05:25 999 29.5 828 24.45 -9.3 15.3 65 -14.7 5.6
05:30 999 29.5 828 24.45 -9.4 15 68 -14.3 6.3
05:35 999 29.5 828 24.45 -9.7 14.5 69 -14.3 6.2
05:40 999 29.5 828 24.45 -9.9 14.2 70 -14.4 6
05:45 999 29.5 828 24.45 -10 14 70 -14.4 6
05:50 999 29.5 828 24.45 -10.3 13.5 72 -14.5 5.9
05:55 999 29.5 828 24.45 -10.3 13.6 71 -14.5 5.9
06:00 999 29.5 828 24.45 -10.3 13.5 71 -14.6 5.7
06:05 999 29.5 828 24.45 -10.2 13.6 70 -14.7 5.6
06:10 999 29.5 828 24.45 -9.9 14.3 69 -14.6 5.7
06:15 999 29.5 828 24.45 -9.8 14.4 69 -14.5 5.9
06:20 999 29.5 828 24.45 -9.7 14.5 69 -14.4 6.1
06:25 999 29.5 828 24.45 -9.9 14.3 70 -14.4 6.1
06:30 999 29.5 828 24.45 -9.9 14.2 69 -14.5 5.9
06:35 999 29.5 828 24.45 -10 14.1 70 -14.5 5.9
06:40 999 29.5 828 24.45 -10.2 13.7 70 -14.6 5.7
06:45 999 29.5 828 24.45 -10.1 13.8 69 -14.8 5.4
06:50 999 29.5 828 24.45 -10.4 13.2 70 -14.9 5.1
06:55 999 29.5 828 24.45 -10.5 13.1 69 -15.1 4.9
07:00 999 29.5 828 24.45 -10.3 13.5 68 -15.1 4.9
07:05 999 29.5 828 24.45 -10 14 66 -15.1 4.8
07:10 999 29.5 828 24.45 -9.8 14.4 65 -15.2 4.7
07:15 999 29.5 828 24.45 -9.8 14.3 64 -15.4 4.3
07:20 999 29.5 828 24.45 -9.4 15 62 -15.5 4.1
07:25 999 29.5 829 24.48 -9.7 14.6 63 -15.5 4.1
07:30 999 29.5 828 24.45 -10.3 13.4 64 -15.9 3.5
07:35 999 29.5 829 24.48 -10.7 12.7 65 -16.1 3.1
07:40 999 29.5 829 24.48 -10.9 12.4 65 -16.3 2.7
07:45 999 29.5 829 24.48 -10.9 12.3 65 -16.2 2.8
07:50 999 29.5 829 24.48 -11 12.2 65 -16.3 2.7
07:55 999 29.5 829 24.48 -10.6 13 66 -15.7 3.8
08:00 999 29.5 829 24.48 -10.2 13.7 65 -15.5 4.2
08:05 999 29.5 829 24.48 -10 14 65 -15.5 4.1
08:10 999 29.5 829 24.48 -10.1 13.7 65 -15.6 4
08:15 999 29.5 829 24.48 -10.2 13.6 65 -15.7 3.7
08:20 999 29.5 829 24.48 -10.2 13.6 65 -15.7 3.8
08:25 999 29.5 829 24.48 -10.4 13.3 66 -15.6 4
08:30 999 29.5 828 24.45 -10.4 13.3 67 -15.4 4.3
08:35 999 29.5 828 24.45 -10.6 12.9 67 -15.6 3.8
08:40 999 29.5 829 24.48 -11.1 12 69 -15.8 3.5
08:45 999 29.5 829 24.48 -11.3 11.6 69 -16 3.2
08:50 999 29.5 829 24.48 -11.2 11.9 68 -15.9 3.4
08:55 999 29.5 829 24.48 -11.2 11.9 70 -15.7 3.8
09:00 999 29.5 829 24.48 -11.1 12.1 69 -15.6 3.9
09:05 999 29.5 829 24.48 -11.1 12.1 70 -15.6 3.9
09:10 999 29.5 829 24.48 -11.2 11.8 70 -15.6 3.9
09:15 999 29.5 829 24.48 -11.1 12 68 -15.8 3.6
09:20 999 29.5 829 24.48 -10.9 12.4 68 -15.7 3.7
09:25 999 29.5 829 24.48 -10.8 12.6 67 -15.8 3.6
09:30 999 29.5 829 24.48 -10.7 12.8 67 -15.6 3.9
09:35 999 29.5 829 24.48 -10.5 13.2 66 -15.6 3.9
09:40 999 29.5 829 24.48 -10.3 13.4 66 -15.6 3.9
09:45 1000 29.53 829 24.48 -10.1 13.8 64 -15.6 3.9
09:50 1000 29.53 829 24.48 -9.8 14.4 63 -15.6 4
09:55 1000 29.53 829 24.48 -9.8 14.4 63 -15.6 3.9
10:00 1000 29.53 829 24.48 -9.8 14.4 63 -15.7 3.8
10:05 1000 29.53 829 24.48 -9.6 14.7 61 -15.7 3.7
10:10 1000 29.53 829 24.48 -9.5 14.9 61 -15.7 3.8
10:15 1000 29.53 829 24.48 -9.3 15.3 59 -15.8 3.5
10:20 1000 29.53 829 24.48 -9 15.8 59 -15.6 3.9
10:25 1000 29.53 829 24.48 -8.7 16.4 57 -15.7 3.8
10:30 1000 29.53 829 24.48 -8 17.7 54 -15.6 3.9
10:35 1000 29.53 829 24.48 -7.5 18.4 55 -15 5
10:40 1000 29.53 829 24.48 -7.8 18.1 54 -15.6 4
10:45 1000 29.53 829 24.48 -7.9 17.8 56 -15.3 4.5
10:50 1000 29.53 829 24.48 -8 17.6 55 -15.4 4.2
10:55 1000 29.53 830 24.51 -7.9 17.8 55 -15.3 4.4
11:00 1000 29.53 830 24.51 -7.9 17.8 53 -15.9 3.4
11:05 1000 29.53 830 24.51 -7.3 18.8 51 -15.8 3.6
11:10 1000 29.53 830 24.51 -7.1 19.3 51 -15.7 3.8
11:15 1001 29.56 830 24.51 -6.9 19.6 51 -15.5 4
11:20 1001 29.56 830 24.51 -7 19.4 53 -15.2 4.7
11:25 1001 29.56 830 24.51 -6.5 20.3 48 -15.8 3.6
11:30 1001 29.56 830 24.51 -6 21.3 47 -15.5 4.1
11:35 1001 29.56 830 24.51 -6.1 21 47 -15.6 4
11:40 1001 29.56 830 24.51 -5.7 21.8 46 -15.4 4.2
11:45 1001 29.56 830 24.51 -4.9 23.2 43 -15.7 3.8
11:50 1001 29.56 830 24.51 -4.8 23.4 43 -15.6 4
11:55 1001 29.56 830 24.51 -5.2 22.7 43 -15.8 3.5
12:00 1001 29.56 830 24.51 -5.8 21.6 46 -15.6 4
12:05 1001 29.56 830 24.51 -5.7 21.8 47 -15.3 4.5
12:10 1001 29.56 830 24.51 -5.8 21.5 47 -15.5 4.2
12:15 1001 29.56 830 24.51 -5.6 22 48 -14.9 5.2
12:20 1001 29.56 830 24.51 -5.4 22.3 48 -14.7 5.6
12:25 1001 29.56 830 24.51 -5.3 22.5 46 -15.2 4.6
12:30 1001 29.56 830 24.51 -5.3 22.4 47 -15 5.1
12:35 1001 29.56 830 24.51 -5.3 22.5 47 -14.8 5.3
12:40 1001 29.56 830 24.51 -5.2 22.6 47 -14.9 5.2
12:45 1001 29.56 830 24.51 -5.1 22.8 48 -14.5 5.9
12:50 1001 29.56 830 24.51 -5 23 48 -14.5 5.9
12:55 1001 29.56 830 24.51 -4.9 23.1 46 -14.7 5.5
13:00 1001 29.56 830 24.51 -5.1 22.7 48 -14.7 5.6
13:05 1001 29.56 830 24.51 -5.2 22.6 47 -14.9 5.2
13:10 1001 29.56 830 24.51 -5.2 22.7 49 -14.3 6.3
13:15 1001 29.56 830 24.51 -4.8 23.3 46 -14.8 5.3
13:20 1001 29.56 830 24.51 -4.6 23.6 45 -14.7 5.5
13:25 1001 29.56 830 24.51 -4.7 23.5 44 -15.1 4.7
13:30 1001 29.56 830 24.51 -4.8 23.4 45 -15.1 4.8
13:35 1001 29.56 830 24.51 -5 23 45 -15.1 4.8
13:40 1001 29.56 830 24.51 -5 22.9 52 -13.5 7.7
13:45 1001 29.56 830 24.51 -5.2 22.6 51 -13.8 7.2
13:50 1001 29.56 830 24.51 -5.4 22.2 54 -13.4 7.9
13:55 1001 29.56 830 24.51 -5.5 22 56 -13 8.7
14:00 1001 29.56 830 24.51 -5.3 22.5 60 -11.9 10.6
14:05 1001 29.56 830 24.51 -5.4 22.4 62 -11.5 11.3
14:10 1001 29.56 830 24.51 -5.4 22.3 65 -11 12.2
14:15 1001 29.56 830 24.51 -5.6 21.9 66 -11 12.2
14:20 1001 29.56 830 24.51 -5.7 21.7 67 -10.8 12.5
14:25 1001 29.56 830 24.51 -5.5 22.2 67 -10.6 13
14:30 1001 29.56 830 24.51 -5.5 22.1 66 -10.9 12.5
14:35 1001 29.56 830 24.51 -6.4 20.5 72 -10.6 12.9
14:40 1001 29.56 830 24.51 -6.3 20.6 73 -10.4 13.3
14:45 1001 29.56 830 24.51 -6.3 20.7 74 -10.3 13.5
14:50 1001 29.56 830 24.51 -6.3 20.7 74 -10.1 13.8
14:55 1001 29.56 830 24.51 -6.3 20.6 76 -9.9 14.2
15:00 1001 29.56 830 24.51 -6.5 20.2 77 -10 14
15:05 1001 29.56 830 24.51 -6.7 19.9 80 -9.7 14.6
15:10 1001 29.56 830 24.51 -6.3 20.6 77 -9.7 14.5
15:15 1001 29.56 830 24.51 -6.5 20.3 79 -9.6 14.8
15:20 1001 29.56 830 24.51 -6.1 21 76 -9.7 14.6
15:25 1001 29.56 830 24.51 -6.4 20.4 78 -9.7 14.6
15:30 1001 29.56 830 24.51 -6.8 19.8 79 -9.8 14.4
15:35 1001 29.56 830 24.51 -6.8 19.7 80 -9.8 14.4
15:40 1001 29.56 830 24.51 -6.6 20.1 79 -9.7 14.6
15:45 1001 29.56 831 24.54 -6.5 20.2 78 -9.8 14.4
15:50 1001 29.56 831 24.54 -6.8 19.7 80 -9.8 14.3
15:55 1001 29.56 831 24.54 -6.9 19.6 79 -9.9 14.1
16:00 1001 29.56 831 24.54 -6.9 19.6 80 -9.9 14.3
16:05 1001 29.56 831 24.54 -6.7 19.9 78 -9.9 14.2
16:10 1001 29.56 831 24.54 -6.7 19.9 78 -10 14
16:15 1002 29.59 831 24.54 -6.8 19.8 78 -10 14.1
16:20 1002 29.59 831 24.54 -6.9 19.6 79 -10 14.1
16:25 1002 29.59 831 24.54 -6.9 19.7 79 -9.9 14.2
16:30 1002 29.59 831 24.54 -6.7 19.9 79 -9.8 14.4
16:35 1002 29.59 831 24.54 -6.7 19.9 79 -9.8 14.4
16:40 1002 29.59 831 24.54 -6.7 19.9 79 -9.7 14.5
16:45 1002 29.59 831 24.54 -6.7 19.9 79 -9.7 14.5
16:50 1002 29.59 831 24.54 -7 19.4 80 -9.9 14.2
16:55 1002 29.59 831 24.54 -7.1 19.3 81 -9.9 14.2
17:00 1002 29.59 831 24.54 -7 19.4 81 -9.8 14.4
17:05 1002 29.59 831 24.54 -6.9 19.6 80 -9.8 14.4
17:10 1002 29.59 831 24.54 -6.9 19.6 80 -9.7 14.5
17:15 1002 29.59 831 24.54 -6.9 19.7 80 -9.7 14.5
17:20 1002 29.59 831 24.54 -6.9 19.5 80 -9.8 14.4
17:25 1002 29.59 831 24.54 -7 19.4 80 -9.8 14.4
17:30 1002 29.59 831 24.54 -7.1 19.3 81 -9.7 14.5
17:35 1002 29.59 831 24.54 -7 19.3 82 -9.7 14.6
17:40 1002 29.59 831 24.54 -7 19.4 82 -9.6 14.7
17:45 1002 29.59 831 24.54 -7.1 19.3 82 -9.6 14.7
17:50 1002 29.59 831 24.54 -7.1 19.2 83 -9.6 14.8
17:55 1002 29.59 831 24.54 -7.1 19.2 83 -9.5 14.9
18:00 1002 29.59 831 24.54 -7.1 19.2 83 -9.5 14.9
18:05 1002 29.59 831 24.54 -7.1 19.2 83 -9.5 14.9
18:10 1002 29.59 831 24.54 -7.1 19.2 83 -9.5 15
18:15 1002 29.59 831 24.54 -7.1 19.3 83 -9.4 15
18:20 1002 29.59 831 24.54 -7 19.4 84 -9.3 15.2
18:25 1002 29.59 831 24.54 -7 19.4 84 -9.3 15.2
18:30 1002 29.59 831 24.54 -6.9 19.5 83 -9.4 15.2
18:35 1002 29.59 831 24.54 -6.8 19.7 82 -9.4 15.1
18:40 1002 29.59 831 24.54 -6.6 20 81 -9.4 15.2
18:45 1002 29.59 831 24.54 -6.6 20.1 81 -9.4 15
18:50 1002 29.59 831 24.54 -6.4 20.4 79 -9.5 14.9
18:55 1002 29.59 831 24.54 -6.2 20.8 77 -9.6 14.7
19:00 1002 29.59 831 24.54 -6.1 21.1 76 -9.6 14.8
19:05 1002 29.59 832 24.57 -6 21.2 77 -9.5 14.9
19:10 1002 29.59 831 24.54 -6.1 21.1 77 -9.4 15.1
19:15 1002 29.59 831 24.54 -6.1 21.1 77 -9.5 14.9
19:20 1002 29.59 831 24.54 -6.2 20.8 79 -9.4 15.1
19:25 1002 29.59 831 24.54 -6.4 20.6 79 -9.5 14.9
19:30 1002 29.59 831 24.54 -6.4 20.5 78 -9.6 14.8
19:35 1002 29.59 831 24.54 -6.3 20.7 78 -9.6 14.8
19:40 1002 29.59 831 24.54 -6.2 20.8 78 -9.4 15
19:45 1002 29.59 831 24.54 -6.2 20.8 78 -9.5 14.9
19:50 1002 29.59 831 24.54 -6.3 20.6 79 -9.5 15
19:55 1002 29.59 831 24.54 -6.4 20.5 79 -9.5 15
20:00 1002 29.59 831 24.54 -6.4 20.4 78 -9.7 14.5
20:05 1002 29.59 831 24.54 -6.5 20.3 78 -9.7 14.6
20:10 1002 29.59 831 24.54 -6.5 20.3 77 -9.8 14.3
20:15 1002 29.59 831 24.54 -6.4 20.4 75 -10.1 13.8
20:20 1002 29.59 831 24.54 -6.4 20.5 75 -10.2 13.7
20:25 1002 29.59 831 24.54 -6.4 20.5 74 -10.2 13.6
20:30 1002 29.59 831 24.54 -6.3 20.6 74 -10.2 13.7
20:35 1002 29.59 832 24.57 -6.3 20.6 74 -10.2 13.7
20:40 1002 29.59 832 24.57 -6.3 20.6 74 -10.2 13.6
20:45 1002 29.59 832 24.57 -6.4 20.4 75 -10.1 13.8
20:50 1002 29.59 832 24.57 -6.5 20.3 75 -10.3 13.5
20:55 1002 29.59 831 24.54 -6.5 20.2 74 -10.4 13.2
21:00 1002 29.59 831 24.54 -6.5 20.2 74 -10.5 13.1
21:05 1002 29.59 831 24.54 -6.4 20.4 73 -10.6 13
21:10 1002 29.59 831 24.54 -6.4 20.4 73 -10.6 13
21:15 1002 29.59 831 24.54 -6.4 20.4 72 -10.7 12.7
21:20 1002 29.59 831 24.54 -6.5 20.3 72 -10.7 12.8
21:25 1002 29.59 831 24.54 -6.6 20 73 -10.7 12.8
21:30 1002 29.59 831 24.54 -6.6 20 73 -10.8 12.6
21:35 1002 29.59 831 24.54 -6.5 20.3 73 -10.5 13
21:40 1002 29.59 831 24.54 -6.6 20.1 76 -10.2 13.6
21:45 1002 29.59 831 24.54 -6.6 20.1 76 -10.2 13.6
21:50 1002 29.59 832 24.57 -6.6 20.1 75 -10.3 13.4
21:55 1002 29.59 832 24.57 -6.7 19.9 76 -10.3 13.4
22:00 1002 29.59 832 24.57 -6.7 19.9 75 -10.4 13.2
22:05 1002 29.59 832 24.57 -6.6 20.1 74 -10.5 13.2
22:10 1002 29.59 831 24.54 -6.5 20.2 73 -10.6 13
22:15 1002 29.59 832 24.57 -6.4 20.5 74 -10.3 13.4
22:20 1002 29.59 832 24.57 -6.3 20.6 74 -10.2 13.6
22:25 1002 29.59 832 24.57 -6.3 20.6 71 -10.8 12.6
22:30 1002 29.59 832 24.57 -6.1 21 73 -10.2 13.6
22:35 1002 29.59 832 24.57 -6.1 21 74 -10 13.9
22:40 1002 29.59 832 24.57 -6.1 21 74 -10 13.9
22:45 1003 29.62 832 24.57 -6.2 20.9 70 -10.8 12.6
22:50 1002 29.59 832 24.57 -6 21.2 72 -10.2 13.6
22:55 1002 29.59 832 24.57 -5.9 21.3 72 -10.2 13.6
23:00 1002 29.59 832 24.57 -6 21.2 74 -10 14
23:05 1002 29.59 832 24.57 -6.3 20.7 73 -10.3 13.4
23:10 1002 29.59 832 24.57 -6.3 20.7 73 -10.4 13.3
23:15 1002 29.59 832 24.57 -6.3 20.7 73 -10.4 13.3
23:20 1002 29.59 832 24.57 -6.4 20.6 74 -10.3 13.5
23:25 1002 29.59 832 24.57 -6.5 20.4 71 -10.8 12.5
23:30 1002 29.59 832 24.57 -6.2 20.8 71 -10.7 12.7
23:35 1003 29.62 832 24.57 -6.2 20.9 70 -10.7 12.7
23:40 1003 29.62 832 24.57 -6.2 20.8 72 -10.5 13.1
23:45 1003 29.62 832 24.57 -6.3 20.7 71 -10.7 12.7
23:50 1003 29.62 832 24.57 -6.1 21 68 -11.1 12.1
23:55 1003 29.62 832 24.57 -5.9 21.3 67 -11.1 11.9
24:00 1003 29.62 832 24.57 -5.9 21.4 63 -11.9 10.6